Pollok, TX (75969)

3:30 AM CDT on August 26, 2016 (GMT -0500)
allen town | | Change Station

Elev 335 ft 31.45 °N, 94.87 °W | Updated 14 minutes ago

Scattered Clouds
Scattered Clouds
73.9 °F
Feels Like 70 °F
N
0.0
Wind Variable Wind from North

Today
High -- | Low -- °F
--% Chance of Precip.
Yesterday
High -- | Low -- °F
Precip. -- in
Pressure 30.03 in
Visibility 8.0 miles
Clouds Scattered Clouds 900 ft
Heat Index 70 °F
Dew Point 73 °F
Humidity 97%
Rainfall 0.00 in
Snow Depth Not available.
6:52 AM 7:49 PM
Last Quarter, 37% visible
SPECI KLFK 260824Z AUTO 33003KT 8SM SCT009 23/22 A3003 RMK AO2 T02280222
Pressure 30.03 in
Visibility 8.0 miles
Clouds Scattered Clouds 900 ft
Heat Index 70 °F
Dew Point 73 °F
Humidity 97%
Rainfall 0.00 in
Snow Depth Not available.
6:52 AM 7:49 PM
Last Quarter, 37% visible
SPECI KLFK 260824Z AUTO 33003KT 8SM SCT009 23/22 A3003 RMK AO2 T02280222

10-Day Weather Forecast

Almanac

Astronomy

Aug. 26, 2016 Rise Set
Actual Time
Civil Twilight
Nautical Twilight
Astronomical Twilight
Moon
Length of Visible Light
Length of Day
Tomorrow will be .
, % of the Moon is Illuminated

Today's Extremes

State Highs State Lows

Community

WunderPhotos

Upload Photos

1,935,062 photos uploaded!

WunderBlog® & News

Nearby

Air Quality

  Air Quality AQ Index Pollutant
Not available.

Snow Depth

Station Depth Elevation

Earthquake Activity

City Distance Mag. Time & Date
Minimum magnitude displayed is 2.5.

Coastal Water Temperatures

Place Temperature

Stations

Nearby Weather Stations

Station Location Temp. Windchill Dew Point Humidity Wind Precip. Elev Updated Type
                   

Watches & Warnings

There are currently no watches in effect.